Terminal Aerodrome Forecast
Issued by NWS Sioux Falls, SD

Home | Current Version | Previous Version | Graphics & Text | Print | Product List | Glossary On
Versions: 1 2 3 4 5 6 7 8 9 10 11 12 13
278
FTUS43 KFSD 071135
TAFHON
TAF
KHON 071135Z 0712/0812 28018G25KT P6SM SCT120 WS010/30045KT
     FM071500 29021G34KT P6SM SCT050 BKN120
     FM071800 32027G38KT P6SM OVC050
     FM072000 32029G42KT P6SM VCSH BKN025 OVC040
     FM080100 32028G38KT P6SM BKN025
     FM080600 33024G35KT P6SM BKN035=

USA.gov is the U.S. government's official web portal to all federal, state and local government web resources and services.